Taber, Idaho
Current Conditions -  °F | °C
As of 1:53 AM on Sunday 26 Oct 2014 (Local Time) from KIDA Reporting Station
Overcast Overcast  
Wind Chill: 54°   Ceiling: 6000
Heat Index: 54°   Visibility: 10mi
Dew Point: 35°   Wind: 20mph
Humidity: 49%   Direction: 220°SW
Pressure: 29.94"   Gusts: 28mph
Location:  43.2718°N, 112.405°W
Report Text: KIDA 260753Z AUTO 22017G24KT 10SM BKN060 OVC075 12/02 A2994 RMK AO2 PK WND 22026/0725 RAE02 SLP102 P0000 T01220017
Loading
Personal Weather Stations






























Interactive Weather Map
Tropical Storm Tracking
New forecast layout! Learn more

10-Day Weather Forecast

Advertisements
Track Severe Weather on mobile